sensor_id;sensor_type;location;lat;lon;timestamp;temperature;humidity
72650;SHT31;61467;50.674;4.618;2023-04-01T00:00:25;9.63;87.73
72650;SHT31;61467;50.674;4.618;2023-04-01T00:02:51;9.75;87.46
72650;SHT31;61467;50.674;4.618;2023-04-01T00:05:18;9.68;87.19
72650;SHT31;61467;50.674;4.618;2023-04-01T00:07:45;9.85;86.84
72650;SHT31;61467;50.674;4.618;2023-04-01T00:10:13;9.65;86.89
72650;SHT31;61467;50.674;4.618;2023-04-01T00:12:40;9.61;87.54
72650;SHT31;61467;50.674;4.618;2023-04-01T00:15:10;9.52;87.87
72650;SHT31;61467;50.674;4.618;2023-04-01T00:17:38;9.63;87.50
72650;SHT31;61467;50.674;4.618;2023-04-01T00:20:06;9.61;87.16
72650;SHT31;61467;50.674;4.618;2023-04-01T00:22:34;9.61;87.16
72650;SHT31;61467;50.674;4.618;2023-04-01T00:25:01;9.63;87.30
72650;SHT31;61467;50.674;4.618;2023-04-01T00:27:28;9.72;86.90
72650;SHT31;61467;50.674;4.618;2023-04-01T00:29:55;9.58;87.33
72650;SHT31;61467;50.674;4.618;2023-04-01T00:32:23;9.71;87.11
72650;SHT31;61467;50.674;4.618;2023-04-01T00:34:51;9.62;87.34
72650;SHT31;61467;50.674;4.618;2023-04-01T00:37:19;9.76;86.98
72650;SHT31;61467;50.674;4.618;2023-04-01T00:39:47;9.65;87.16
72650;SHT31;61467;50.674;4.618;2023-04-01T00:42:14;9.72;87.02
72650;SHT31;61467;50.674;4.618;2023-04-01T00:44:41;9.78;86.91
72650;SHT31;61467;50.674;4.618;2023-04-01T00:47:08;9.68;86.80
72650;SHT31;61467;50.674;4.618;2023-04-01T00:49:39;9.76;86.97
72650;SHT31;61467;50.674;4.618;2023-04-01T00:52:08;9.52;87.54
72650;SHT31;61467;50.674;4.618;2023-04-01T00:54:37;9.55;87.52
72650;SHT31;61467;50.674;4.618;2023-04-01T00:57:07;9.55;87.51
72650;SHT31;61467;50.674;4.618;2023-04-01T00:59:39;9.55;87.74
72650;SHT31;61467;50.674;4.618;2023-04-01T01:02:08;9.61;87.60
72650;SHT31;61467;50.674;4.618;2023-04-01T01:04:37;9.63;87.62
72650;SHT31;61467;50.674;4.618;2023-04-01T01:07:13;9.56;87.74
72650;SHT31;61467;50.674;4.618;2023-04-01T01:09:53;9.58;88.08
72650;SHT31;61467;50.674;4.618;2023-04-01T01:12:25;9.58;88.06
72650;SHT31;61467;50.674;4.618;2023-04-01T01:15:03;9.51;88.34
72650;SHT31;61467;50.674;4.618;2023-04-01T01:17:43;9.45;88.68
72650;SHT31;61467;50.674;4.618;2023-04-01T01:23:42;9.62;88.47
72650;SHT31;61467;50.674;4.618;2023-04-01T01:29:12;9.76;87.70
72650;SHT31;61467;50.674;4.618;2023-04-01T01:31:52;9.78;87.23
72650;SHT31;61467;50.674;4.618;2023-04-01T01:34:22;9.65;87.70
72650;SHT31;61467;50.674;4.618;2023-04-01T01:37:00;9.69;87.84
72650;SHT31;61467;50.674;4.618;2023-04-01T01:39:30;9.72;87.57
72650;SHT31;61467;50.674;4.618;2023-04-01T01:42:00;9.81;87.29
72650;SHT31;61467;50.674;4.618;2023-04-01T01:44:29;9.71;87.76
72650;SHT31;61467;50.674;4.618;2023-04-01T01:46:57;9.68;87.52
72650;SHT31;61467;50.674;4.618;2023-04-01T01:49:25;9.68;88.05
72650;SHT31;61467;50.674;4.618;2023-04-01T01:51:57;9.55;88.65
72650;SHT31;61467;50.674;4.618;2023-04-01T01:54:24;9.58;88.33
72650;SHT31;61467;50.674;4.618;2023-04-01T01:57:03;9.59;88.23
72650;SHT31;61467;50.674;4.618;2023-04-01T01:59:32;9.69;88.28
72650;SHT31;61467;50.674;4.618;2023-04-01T02:02:02;9.86;87.90
72650;SHT31;61467;50.674;4.618;2023-04-01T02:04:34;9.81;87.37
72650;SHT31;61467;50.674;4.618;2023-04-01T02:07:05;9.75;87.65
72650;SHT31;61467;50.674;4.618;2023-04-01T02:09:34;9.72;87.87
72650;SHT31;61467;50.674;4.618;2023-04-01T02:12:04;9.79;87.59
72650;SHT31;61467;50.674;4.618;2023-04-01T02:14:37;9.65;88.06
72650;SHT31;61467;50.674;4.618;2023-04-01T02:17:08;9.59;88.44
72650;SHT31;61467;50.674;4.618;2023-04-01T02:19:38;9.63;88.16
72650;SHT31;61467;50.674;4.618;2023-04-01T02:22:11;9.54;88.45
72650;SHT31;61467;50.674;4.618;2023-04-01T02:24:40;9.68;88.29
72650;SHT31;61467;50.674;4.618;2023-04-01T02:27:09;9.82;87.76
72650;SHT31;61467;50.674;4.618;2023-04-01T02:29:36;9.81;87.45
72650;SHT31;61467;50.674;4.618;2023-04-01T02:32:04;9.73;87.66
72650;SHT31;61467;50.674;4.618;2023-04-01T02:34:32;9.79;86.66
72650;SHT31;61467;50.674;4.618;2023-04-01T02:37:00;9.68;86.74
72650;SHT31;61467;50.674;4.618;2023-04-01T02:39:28;9.86;86.82
72650;SHT31;61467;50.674;4.618;2023-04-01T02:41:56;9.73;87.29
72650;SHT31;61467;50.674;4.618;2023-04-01T02:44:22;9.66;86.84
72650;SHT31;61467;50.674;4.618;2023-04-01T02:46:49;9.68;87.24
72650;SHT31;61467;50.674;4.618;2023-04-01T02:49:16;9.78;87.04
72650;SHT31;61467;50.674;4.618;2023-04-01T02:51:43;9.76;86.50
72650;SHT31;61467;50.674;4.618;2023-04-01T02:54:10;9.87;86.45
72650;SHT31;61467;50.674;4.618;2023-04-01T02:56:38;9.97;86.31
72650;SHT31;61467;50.674;4.618;2023-04-01T02:59:05;9.92;86.05
72650;SHT31;61467;50.674;4.618;2023-04-01T03:01:32;9.61;86.74
72650;SHT31;61467;50.674;4.618;2023-04-01T03:03:59;9.85;86.75
72650;SHT31;61467;50.674;4.618;2023-04-01T03:06:26;9.71;86.57
72650;SHT31;61467;50.674;4.618;2023-04-01T03:08:53;9.76;86.74
72650;SHT31;61467;50.674;4.618;2023-04-01T03:11:20;9.59;87.32
72650;SHT31;61467;50.674;4.618;2023-04-01T03:13:49;9.59;87.52
72650;SHT31;61467;50.674;4.618;2023-04-01T03:16:15;9.76;87.36
72650;SHT31;61467;50.674;4.618;2023-04-01T03:18:42;9.55;87.76
72650;SHT31;61467;50.674;4.618;2023-04-01T03:21:14;9.52;87.77
72650;SHT31;61467;50.674;4.618;2023-04-01T03:23:41;9.58;87.55
72650;SHT31;61467;50.674;4.618;2023-04-01T03:26:08;9.81;87.28
72650;SHT31;61467;50.674;4.618;2023-04-01T03:28:36;9.59;87.41
72650;SHT31;61467;50.674;4.618;2023-04-01T03:31:05;9.48;88.08
72650;SHT31;61467;50.674;4.618;2023-04-01T03:33:32;9.83;87.69
72650;SHT31;61467;50.674;4.618;2023-04-01T03:35:59;9.75;87.34
72650;SHT31;61467;50.674;4.618;2023-04-01T03:38:26;9.61;87.12
72650;SHT31;61467;50.674;4.618;2023-04-01T03:40:53;9.62;87.43
72650;SHT31;61467;50.674;4.618;2023-04-01T03:43:19;9.56;87.07
72650;SHT31;61467;50.674;4.618;2023-04-01T03:45:47;9.69;87.03
72650;SHT31;61467;50.674;4.618;2023-04-01T03:48:15;9.52;87.07
72650;SHT31;61467;50.674;4.618;2023-04-01T03:50:42;9.61;86.43
72650;SHT31;61467;50.674;4.618;2023-04-01T03:53:10;9.52;86.76
72650;SHT31;61467;50.674;4.618;2023-04-01T03:55:37;9.44;87.38
72650;SHT31;61467;50.674;4.618;2023-04-01T03:58:04;9.41;87.22
72650;SHT31;61467;50.674;4.618;2023-04-01T04:00:31;9.49;87.23
72650;SHT31;61467;50.674;4.618;2023-04-01T04:02:59;9.36;87.29
72650;SHT31;61467;50.674;4.618;2023-04-01T04:05:27;9.24;87.51
72650;SHT31;61467;50.674;4.618;2023-04-01T04:07:54;9.27;88.06
72650;SHT31;61467;50.674;4.618;2023-04-01T04:10:21;9.30;87.99
72650;SHT31;61467;50.674;4.618;2023-04-01T04:12:50;9.31;87.39
72650;SHT31;61467;50.674;4.618;2023-04-01T04:15:17;9.38;87.45
72650;SHT31;61467;50.674;4.618;2023-04-01T04:17:44;9.44;87.48
72650;SHT31;61467;50.674;4.618;2023-04-01T04:20:11;9.38;87.05
72650;SHT31;61467;50.674;4.618;2023-04-01T04:22:39;9.54;87.34
72650;SHT31;61467;50.674;4.618;2023-04-01T04:25:07;9.71;86.34
72650;SHT31;61467;50.674;4.618;2023-04-01T04:27:34;9.63;86.33
72650;SHT31;61467;50.674;4.618;2023-04-01T04:30:02;9.69;86.52
72650;SHT31;61467;50.674;4.618;2023-04-01T04:32:29;9.44;86.74
72650;SHT31;61467;50.674;4.618;2023-04-01T04:34:56;9.34;87.27
72650;SHT31;61467;50.674;4.618;2023-04-01T04:37:23;9.34;87.76
72650;SHT31;61467;50.674;4.618;2023-04-01T04:39:52;9.27;88.16
72650;SHT31;61467;50.674;4.618;2023-04-01T04:42:19;9.42;87.93
72650;SHT31;61467;50.674;4.618;2023-04-01T04:44:46;9.54;87.33
72650;SHT31;61467;50.674;4.618;2023-04-01T04:47:13;9.46;87.44
72650;SHT31;61467;50.674;4.618;2023-04-01T04:49:39;9.56;87.39
72650;SHT31;61467;50.674;4.618;2023-04-01T04:52:06;9.36;87.65
72650;SHT31;61467;50.674;4.618;2023-04-01T04:54:33;9.49;86.82
72650;SHT31;61467;50.674;4.618;2023-04-01T04:57:01;9.45;87.03
72650;SHT31;61467;50.674;4.618;2023-04-01T04:59:28;9.28;87.60
72650;SHT31;61467;50.674;4.618;2023-04-01T05:01:55;9.34;87.93
72650;SHT31;61467;50.674;4.618;2023-04-01T05:04:21;9.35;87.81
72650;SHT31;61467;50.674;4.618;2023-04-01T05:06:48;9.32;87.96
72650;SHT31;61467;50.674;4.618;2023-04-01T05:09:17;9.17;88.37
72650;SHT31;61467;50.674;4.618;2023-04-01T05:11:43;9.21;87.95
72650;SHT31;61467;50.674;4.618;2023-04-01T05:14:15;9.30;88.48
72650;SHT31;61467;50.674;4.618;2023-04-01T05:16:43;9.41;88.29
72650;SHT31;61467;50.674;4.618;2023-04-01T05:19:09;9.36;88.05
72650;SHT31;61467;50.674;4.618;2023-04-01T05:21:36;9.17;88.38
72650;SHT31;61467;50.674;4.618;2023-04-01T05:24:06;9.21;88.83
72650;SHT31;61467;50.674;4.618;2023-04-01T05:26:33;9.23;89.03
72650;SHT31;61467;50.674;4.618;2023-04-01T05:29:00;9.21;88.92
72650;SHT31;61467;50.674;4.618;2023-04-01T05:31:28;9.15;89.09
72650;SHT31;61467;50.674;4.618;2023-04-01T05:33:55;9.20;89.00
72650;SHT31;61467;50.674;4.618;2023-04-01T05:36:22;9.36;88.24
72650;SHT31;61467;50.674;4.618;2023-04-01T05:38:49;9.34;87.80
72650;SHT31;61467;50.674;4.618;2023-04-01T05:41:16;9.27;88.26
72650;SHT31;61467;50.674;4.618;2023-04-01T05:43:43;9.45;88.44
72650;SHT31;61467;50.674;4.618;2023-04-01T05:46:10;9.36;88.00
72650;SHT31;61467;50.674;4.618;2023-04-01T05:48:38;9.34;88.00
72650;SHT31;61467;50.674;4.618;2023-04-01T05:51:05;9.35;88.42
72650;SHT31;61467;50.674;4.618;2023-04-01T05:53:32;9.31;88.56
72650;SHT31;61467;50.674;4.618;2023-04-01T05:56:02;9.31;88.42
72650;SHT31;61467;50.674;4.618;2023-04-01T05:58:29;9.28;88.34
72650;SHT31;61467;50.674;4.618;2023-04-01T06:01:00;9.54;88.20
72650;SHT31;61467;50.674;4.618;2023-04-01T06:03:27;9.35;88.04
72650;SHT31;61467;50.674;4.618;2023-04-01T06:05:55;9.62;87.30
72650;SHT31;61467;50.674;4.618;2023-04-01T06:08:24;9.51;87.36
72650;SHT31;61467;50.674;4.618;2023-04-01T06:11:02;9.52;87.64
72650;SHT31;61467;50.674;4.618;2023-04-01T06:13:54;9.38;88.27
72650;SHT31;61467;50.674;4.618;2023-04-01T06:16:34;9.18;88.75
72650;SHT31;61467;50.674;4.618;2023-04-01T06:19:12;9.20;88.76
72650;SHT31;61467;50.674;4.618;2023-04-01T06:24:55;9.36;88.16
72650;SHT31;61467;50.674;4.618;2023-04-01T06:27:40;9.36;88.15
72650;SHT31;61467;50.674;4.618;2023-04-01T06:30:30;9.28;88.43
72650;SHT31;61467;50.674;4.618;2023-04-01T06:33:30;9.36;88.07
72650;SHT31;61467;50.674;4.618;2023-04-01T06:36:12;9.35;88.14
72650;SHT31;61467;50.674;4.618;2023-04-01T06:38:49;9.23;88.04
72650;SHT31;61467;50.674;4.618;2023-04-01T06:41:56;9.34;87.54
72650;SHT31;61467;50.674;4.618;2023-04-01T06:44:33;9.52;87.36
72650;SHT31;61467;50.674;4.618;2023-04-01T06:47:12;9.32;87.33
72650;SHT31;61467;50.674;4.618;2023-04-01T06:49:49;9.25;87.25
72650;SHT31;61467;50.674;4.618;2023-04-01T06:52:26;9.28;87.28
72650;SHT31;61467;50.674;4.618;2023-04-01T06:55:05;9.27;87.97
72650;SHT31;61467;50.674;4.618;2023-04-01T06:57:41;9.25;87.91
72650;SHT31;61467;50.674;4.618;2023-04-01T07:00:13;9.20;88.34
72650;SHT31;61467;50.674;4.618;2023-04-01T07:02:45;9.31;88.35
72650;SHT31;61467;50.674;4.618;2023-04-01T07:05:14;9.24;87.63
72650;SHT31;61467;50.674;4.618;2023-04-01T07:07:44;9.38;87.62
72650;SHT31;61467;50.674;4.618;2023-04-01T07:10:17;9.25;87.95
72650;SHT31;61467;50.674;4.618;2023-04-01T07:12:48;9.34;87.44
72650;SHT31;61467;50.674;4.618;2023-04-01T07:15:19;9.52;87.50
72650;SHT31;61467;50.674;4.618;2023-04-01T07:17:52;9.48;87.11
72650;SHT31;61467;50.674;4.618;2023-04-01T07:20:22;9.45;87.33
72650;SHT31;61467;50.674;4.618;2023-04-01T07:22:54;9.34;87.47
72650;SHT31;61467;50.674;4.618;2023-04-01T07:25:26;9.45;87.30
72650;SHT31;61467;50.674;4.618;2023-04-01T07:27:59;9.42;87.46
72650;SHT31;61467;50.674;4.618;2023-04-01T07:30:30;9.52;87.30
72650;SHT31;61467;50.674;4.618;2023-04-01T07:33:04;9.41;87.80
72650;SHT31;61467;50.674;4.618;2023-04-01T07:35:38;9.55;87.61
72650;SHT31;61467;50.674;4.618;2023-04-01T07:38:15;9.42;87.56
72650;SHT31;61467;50.674;4.618;2023-04-01T07:40:50;9.55;87.50
72650;SHT31;61467;50.674;4.618;2023-04-01T07:43:44;9.49;87.74
72650;SHT31;61467;50.674;4.618;2023-04-01T07:46:24;9.31;88.05
72650;SHT31;61467;50.674;4.618;2023-04-01T07:48:59;9.59;87.85
72650;SHT31;61467;50.674;4.618;2023-04-01T07:51:31;9.42;87.50
72650;SHT31;61467;50.674;4.618;2023-04-01T07:54:05;9.38;87.25
72650;SHT31;61467;50.674;4.618;2023-04-01T07:56:40;9.44;87.62
72650;SHT31;61467;50.674;4.618;2023-04-01T07:59:15;9.41;87.21
72650;SHT31;61467;50.674;4.618;2023-04-01T08:01:50;9.39;87.89
72650;SHT31;61467;50.674;4.618;2023-04-01T08:04:32;9.78;87.56
72650;SHT31;61467;50.674;4.618;2023-04-01T08:07:08;9.79;86.59
72650;SHT31;61467;50.674;4.618;2023-04-01T08:09:43;9.58;87.26
72650;SHT31;61467;50.674;4.618;2023-04-01T08:12:21;9.68;87.21
72650;SHT31;61467;50.674;4.618;2023-04-01T08:15:01;9.76;86.45
72650;SHT31;61467;50.674;4.618;2023-04-01T08:17:35;9.69;87.29
72650;SHT31;61467;50.674;4.618;2023-04-01T08:20:14;9.59;87.33
72650;SHT31;61467;50.674;4.618;2023-04-01T08:22:49;9.66;87.01
72650;SHT31;61467;50.674;4.618;2023-04-01T08:25:20;9.78;86.63
72650;SHT31;61467;50.674;4.618;2023-04-01T08:27:53;9.68;86.85
72650;SHT31;61467;50.674;4.618;2023-04-01T08:30:24;9.61;86.97
72650;SHT31;61467;50.674;4.618;2023-04-01T08:32:54;9.65;86.87
72650;SHT31;61467;50.674;4.618;2023-04-01T08:35:28;9.71;86.46
72650;SHT31;61467;50.674;4.618;2023-04-01T08:38:01;9.59;86.47
72650;SHT31;61467;50.674;4.618;2023-04-01T08:40:55;9.62;86.62
72650;SHT31;61467;50.674;4.618;2023-04-01T08:43:36;9.56;87.07
72650;SHT31;61467;50.674;4.618;2023-04-01T08:46:27;9.65;87.56
72650;SHT31;61467;50.674;4.618;2023-04-01T08:49:13;9.93;87.36
72650;SHT31;61467;50.674;4.618;2023-04-01T08:52:02;10.04;86.38
72650;SHT31;61467;50.674;4.618;2023-04-01T08:54:48;9.92;85.59
72650;SHT31;61467;50.674;4.618;2023-04-01T08:57:35;9.69;86.65
72650;SHT31;61467;50.674;4.618;2023-04-01T09:00:15;9.83;86.52
72650;SHT31;61467;50.674;4.618;2023-04-01T09:03:03;9.97;86.44
72650;SHT31;61467;50.674;4.618;2023-04-01T09:05:40;9.78;86.34
72650;SHT31;61467;50.674;4.618;2023-04-01T09:08:21;9.68;86.78
72650;SHT31;61467;50.674;4.618;2023-04-01T09:11:16;9.79;87.25
72650;SHT31;61467;50.674;4.618;2023-04-01T09:14:10;9.86;86.30
72650;SHT31;61467;50.674;4.618;2023-04-01T09:17:06;9.76;86.82
72650;SHT31;61467;50.674;4.618;2023-04-01T09:19:45;9.65;86.49
72650;SHT31;61467;50.674;4.618;2023-04-01T09:22:28;9.83;85.84
72650;SHT31;61467;50.674;4.618;2023-04-01T09:25:27;9.93;86.07
72650;SHT31;61467;50.674;4.618;2023-04-01T09:27:57;9.76;86.32
72650;SHT31;61467;50.674;4.618;2023-04-01T09:30:48;9.87;86.66
72650;SHT31;61467;50.674;4.618;2023-04-01T09:33:46;9.79;86.32
72650;SHT31;61467;50.674;4.618;2023-04-01T09:36:33;9.82;86.03
72650;SHT31;61467;50.674;4.618;2023-04-01T09:39:24;9.89;86.20
72650;SHT31;61467;50.674;4.618;2023-04-01T09:42:15;9.86;86.40
72650;SHT31;61467;50.674;4.618;2023-04-01T09:44:52;9.90;86.55
72650;SHT31;61467;50.674;4.618;2023-04-01T09:47:33;9.86;86.75
72650;SHT31;61467;50.674;4.618;2023-04-01T09:50:29;9.71;86.55
72650;SHT31;61467;50.674;4.618;2023-04-01T09:53:10;9.59;87.44
72650;SHT31;61467;50.674;4.618;2023-04-01T09:56:01;9.71;86.98
72650;SHT31;61467;50.674;4.618;2023-04-01T09:59:15;9.97;87.34
72650;SHT31;61467;50.674;4.618;2023-04-01T10:02:10;9.90;86.83
72650;SHT31;61467;50.674;4.618;2023-04-01T10:05:18;9.83;87.39
72650;SHT31;61467;50.674;4.618;2023-04-01T10:14:16;10.02;86.47
72650;SHT31;61467;50.674;4.618;2023-04-01T10:17:24;10.14;86.12
72650;SHT31;61467;50.674;4.618;2023-04-01T10:20:06;10.09;86.10
72650;SHT31;61467;50.674;4.618;2023-04-01T10:23:02;9.99;85.96
72650;SHT31;61467;50.674;4.618;2023-04-01T10:25:53;10.03;85.87
72650;SHT31;61467;50.674;4.618;2023-04-01T10:28:38;10.20;85.75
72650;SHT31;61467;50.674;4.618;2023-04-01T10:31:28;10.27;86.28
72650;SHT31;61467;50.674;4.618;2023-04-01T10:34:33;10.41;86.18
72650;SHT31;61467;50.674;4.618;2023-04-01T10:37:16;10.55;85.95
72650;SHT31;61467;50.674;4.618;2023-04-01T10:40:15;10.41;86.09
72650;SHT31;61467;50.674;4.618;2023-04-01T10:46:05;10.63;85.26
72650;SHT31;61467;50.674;4.618;2023-04-01T10:49:10;10.79;85.15
72650;SHT31;61467;50.674;4.618;2023-04-01T10:55:05;10.51;84.85
72650;SHT31;61467;50.674;4.618;2023-04-01T11:01:08;10.60;85.08
72650;SHT31;61467;50.674;4.618;2023-04-01T11:10:16;10.53;84.46
72650;SHT31;61467;50.674;4.618;2023-04-01T11:30:57;10.48;84.46
72650;SHT31;61467;50.674;4.618;2023-04-01T11:33:31;10.47;84.46
72650;SHT31;61467;50.674;4.618;2023-04-01T11:36:21;10.48;85.17
72650;SHT31;61467;50.674;4.618;2023-04-01T11:39:02;10.53;84.56
72650;SHT31;61467;50.674;4.618;2023-04-01T11:41:37;10.64;84.50
72650;SHT31;61467;50.674;4.618;2023-04-01T11:44:16;10.53;84.56
72650;SHT31;61467;50.674;4.618;2023-04-01T11:46:56;10.69;83.74
72650;SHT31;61467;50.674;4.618;2023-04-01T11:49:41;10.79;84.16
72650;SHT31;61467;50.674;4.618;2023-04-01T11:52:37;10.91;83.80
72650;SHT31;61467;50.674;4.618;2023-04-01T11:55:19;10.96;84.10
72650;SHT31;61467;50.674;4.618;2023-04-01T11:58:08;11.01;84.30
72650;SHT31;61467;50.674;4.618;2023-04-01T12:00:51;10.76;83.79
72650;SHT31;61467;50.674;4.618;2023-04-01T12:06:32;10.86;82.94
72650;SHT31;61467;50.674;4.618;2023-04-01T12:09:10;10.76;83.26
72650;SHT31;61467;50.674;4.618;2023-04-01T12:11:47;10.71;83.91
72650;SHT31;61467;50.674;4.618;2023-04-01T12:14:20;10.82;84.21
72650;SHT31;61467;50.674;4.618;2023-04-01T12:16:57;10.55;84.27
72650;SHT31;61467;50.674;4.618;2023-04-01T12:19:35;10.69;83.99
72650;SHT31;61467;50.674;4.618;2023-04-01T12:22:27;10.84;84.04
72650;SHT31;61467;50.674;4.618;2023-04-01T12:25:13;10.85;83.37
72650;SHT31;61467;50.674;4.618;2023-04-01T12:27:45;11.09;82.88
72650;SHT31;61467;50.674;4.618;2023-04-01T12:30:32;11.12;82.90
72650;SHT31;61467;50.674;4.618;2023-04-01T12:33:29;11.22;82.19
72650;SHT31;61467;50.674;4.618;2023-04-01T12:36:07;11.19;81.81
72650;SHT31;61467;50.674;4.618;2023-04-01T12:38:47;11.06;81.76
72650;SHT31;61467;50.674;4.618;2023-04-01T12:41:24;11.23;81.73
72650;SHT31;61467;50.674;4.618;2023-04-01T12:44:23;11.34;81.42
72650;SHT31;61467;50.674;4.618;2023-04-01T12:47:17;11.37;81.89
72650;SHT31;61467;50.674;4.618;2023-04-01T12:49:56;11.23;81.24
72650;SHT31;61467;50.674;4.618;2023-04-01T12:52:39;11.18;82.47
72650;SHT31;61467;50.674;4.618;2023-04-01T12:55:35;11.29;82.07
72650;SHT31;61467;50.674;4.618;2023-04-01T12:58:22;11.23;82.48
72650;SHT31;61467;50.674;4.618;2023-04-01T13:04:12;10.78;83.36
72650;SHT31;61467;50.674;4.618;2023-04-01T13:06:49;10.84;83.00
72650;SHT31;61467;50.674;4.618;2023-04-01T13:09:29;10.79;82.97
72650;SHT31;61467;50.674;4.618;2023-04-01T13:15:31;10.82;82.08
72650;SHT31;61467;50.674;4.618;2023-04-01T13:18:08;10.69;82.67
72650;SHT31;61467;50.674;4.618;2023-04-01T13:20:47;10.61;82.58
72650;SHT31;61467;50.674;4.618;2023-04-01T13:23:27;10.45;82.59
72650;SHT31;61467;50.674;4.618;2023-04-01T13:26:09;10.82;81.04
72650;SHT31;61467;50.674;4.618;2023-04-01T13:28:39;10.84;81.16
72650;SHT31;61467;50.674;4.618;2023-04-01T13:31:17;10.61;82.13
72650;SHT31;61467;50.674;4.618;2023-04-01T13:33:53;10.34;83.34
72650;SHT31;61467;50.674;4.618;2023-04-01T13:36:28;10.53;83.40
72650;SHT31;61467;50.674;4.618;2023-04-01T13:39:24;10.47;82.61
72650;SHT31;61467;50.674;4.618;2023-04-01T13:42:14;10.34;83.55
72650;SHT31;61467;50.674;4.618;2023-04-01T13:44:48;10.33;83.55
72650;SHT31;61467;50.674;4.618;2023-04-01T13:47:41;10.21;83.05
72650;SHT31;61467;50.674;4.618;2023-04-01T13:50:26;10.32;83.12
72650;SHT31;61467;50.674;4.618;2023-04-01T13:56:04;10.21;83.61
72650;SHT31;61467;50.674;4.618;2023-04-01T13:58:47;10.40;83.95
72650;SHT31;61467;50.674;4.618;2023-04-01T14:01:19;10.40;83.70
72650;SHT31;61467;50.674;4.618;2023-04-01T14:06:59;10.10;83.64
72650;SHT31;61467;50.674;4.618;2023-04-01T14:09:59;10.14;84.33
72650;SHT31;61467;50.674;4.618;2023-04-01T14:12:30;10.17;83.78
72650;SHT31;61467;50.674;4.618;2023-04-01T14:15:20;9.82;84.37
72650;SHT31;61467;50.674;4.618;2023-04-01T14:17:58;9.96;84.98
72650;SHT31;61467;50.674;4.618;2023-04-01T14:20:35;10.10;84.51
72650;SHT31;61467;50.674;4.618;2023-04-01T14:23:36;9.92;84.93
72650;SHT31;61467;50.674;4.618;2023-04-01T14:29:18;9.92;85.34
72650;SHT31;61467;50.674;4.618;2023-04-01T14:32:02;9.81;85.22
72650;SHT31;61467;50.674;4.618;2023-04-01T14:34:51;9.89;86.03
72650;SHT31;61467;50.674;4.618;2023-04-01T14:37:38;10.10;85.45
72650;SHT31;61467;50.674;4.618;2023-04-01T14:40:20;10.18;84.97
72650;SHT31;61467;50.674;4.618;2023-04-01T14:43:01;10.09;84.64
72650;SHT31;61467;50.674;4.618;2023-04-01T14:45:45;9.95;85.05
72650;SHT31;61467;50.674;4.618;2023-04-01T14:48:23;9.95;85.20
72650;SHT31;61467;50.674;4.618;2023-04-01T14:50:54;10.18;84.13
72650;SHT31;61467;50.674;4.618;2023-04-01T14:53:27;10.04;84.95
72650;SHT31;61467;50.674;4.618;2023-04-01T14:55:56;10.18;84.62
72650;SHT31;61467;50.674;4.618;2023-04-01T14:58:25;10.14;83.74
72650;SHT31;61467;50.674;4.618;2023-04-01T15:01:11;10.24;83.57
72650;SHT31;61467;50.674;4.618;2023-04-01T15:03:50;10.16;83.87
72650;SHT31;61467;50.674;4.618;2023-04-01T15:06:47;10.24;83.78
72650;SHT31;61467;50.674;4.618;2023-04-01T15:09:24;10.10;84.39
72650;SHT31;61467;50.674;4.618;2023-04-01T15:12:03;10.30;83.66
72650;SHT31;61467;50.674;4.618;2023-04-01T15:14:42;10.38;84.01
72650;SHT31;61467;50.674;4.618;2023-04-01T15:17:41;10.12;83.83
72650;SHT31;61467;50.674;4.618;2023-04-01T15:20:24;10.04;83.22
72650;SHT31;61467;50.674;4.618;2023-04-01T15:23:05;10.16;83.91
72650;SHT31;61467;50.674;4.618;2023-04-01T15:25:45;9.92;83.94
72650;SHT31;61467;50.674;4.618;2023-04-01T15:28:23;9.78;84.47
72650;SHT31;61467;50.674;4.618;2023-04-01T15:30:56;9.82;84.56
72650;SHT31;61467;50.674;4.618;2023-04-01T15:33:48;10.07;83.92
72650;SHT31;61467;50.674;4.618;2023-04-01T15:36:28;10.09;84.39
72650;SHT31;61467;50.674;4.618;2023-04-01T15:39:04;10.06;83.99
72650;SHT31;61467;50.674;4.618;2023-04-01T15:41:38;10.21;83.20
72650;SHT31;61467;50.674;4.618;2023-04-01T15:44:35;10.14;83.45
72650;SHT31;61467;50.674;4.618;2023-04-01T15:47:07;9.92;83.96
72650;SHT31;61467;50.674;4.618;2023-04-01T15:49:49;9.99;84.48
72650;SHT31;61467;50.674;4.618;2023-04-01T15:52:34;10.09;83.84
72650;SHT31;61467;50.674;4.618;2023-04-01T15:55:15;10.23;83.73
72650;SHT31;61467;50.674;4.618;2023-04-01T15:57:52;10.02;83.91
72650;SHT31;61467;50.674;4.618;2023-04-01T16:00:28;9.89;84.04
72650;SHT31;61467;50.674;4.618;2023-04-01T16:03:18;9.92;83.81
72650;SHT31;61467;50.674;4.618;2023-04-01T16:06:08;9.79;84.03
72650;SHT31;61467;50.674;4.618;2023-04-01T16:08:54;9.76;83.79
72650;SHT31;61467;50.674;4.618;2023-04-01T16:11:29;9.78;84.47
72650;SHT31;61467;50.674;4.618;2023-04-01T16:14:07;9.85;84.42
72650;SHT31;61467;50.674;4.618;2023-04-01T16:16:53;9.68;83.80
72650;SHT31;61467;50.674;4.618;2023-04-01T16:19:36;9.69;83.91
72650;SHT31;61467;50.674;4.618;2023-04-01T16:22:07;9.78;83.55
72650;SHT31;61467;50.674;4.618;2023-04-01T16:24:40;9.62;84.04
72650;SHT31;61467;50.674;4.618;2023-04-01T16:27:13;9.65;83.83
72650;SHT31;61467;50.674;4.618;2023-04-01T16:29:46;9.52;83.79
72650;SHT31;61467;50.674;4.618;2023-04-01T16:32:21;9.69;83.72
72650;SHT31;61467;50.674;4.618;2023-04-01T16:34:58;9.59;83.84
72650;SHT31;61467;50.674;4.618;2023-04-01T16:37:32;9.83;83.53
72650;SHT31;61467;50.674;4.618;2023-04-01T16:40:13;9.76;83.44
72650;SHT31;61467;50.674;4.618;2023-04-01T16:42:47;9.66;82.76
72650;SHT31;61467;50.674;4.618;2023-04-01T16:45:26;9.62;83.67
72650;SHT31;61467;50.674;4.618;2023-04-01T16:48:01;9.45;84.45
72650;SHT31;61467;50.674;4.618;2023-04-01T16:50:41;9.46;85.01
72650;SHT31;61467;50.674;4.618;2023-04-01T16:53:17;9.65;83.70
72650;SHT31;61467;50.674;4.618;2023-04-01T16:55:50;9.49;83.81
72650;SHT31;61467;50.674;4.618;2023-04-01T16:58:22;9.52;84.28
72650;SHT31;61467;50.674;4.618;2023-04-01T17:00:53;9.45;84.34
72650;SHT31;61467;50.674;4.618;2023-04-01T17:03:26;9.65;83.66
72650;SHT31;61467;50.674;4.618;2023-04-01T17:06:03;9.92;83.93
72650;SHT31;61467;50.674;4.618;2023-04-01T17:08:58;9.51;84.06
72650;SHT31;61467;50.674;4.618;2023-04-01T17:11:34;9.65;84.15
72650;SHT31;61467;50.674;4.618;2023-04-01T17:14:14;9.62;83.81
72650;SHT31;61467;50.674;4.618;2023-04-01T17:16:52;9.65;83.66
72650;SHT31;61467;50.674;4.618;2023-04-01T17:19:33;9.38;84.33
72650;SHT31;61467;50.674;4.618;2023-04-01T17:22:10;9.56;83.82
72650;SHT31;61467;50.674;4.618;2023-04-01T17:24:51;9.41;84.44
72650;SHT31;61467;50.674;4.618;2023-04-01T17:27:35;9.42;84.20
72650;SHT31;61467;50.674;4.618;2023-04-01T17:30:14;9.58;84.19
72650;SHT31;61467;50.674;4.618;2023-04-01T17:35:35;9.63;83.59
72650;SHT31;61467;50.674;4.618;2023-04-01T17:38:13;9.65;83.83
72650;SHT31;61467;50.674;4.618;2023-04-01T17:40:53;9.73;83.87
72650;SHT31;61467;50.674;4.618;2023-04-01T17:43:34;9.76;83.37
72650;SHT31;61467;50.674;4.618;2023-04-01T17:46:18;9.61;83.61
72650;SHT31;61467;50.674;4.618;2023-04-01T17:48:52;9.45;84.33
72650;SHT31;61467;50.674;4.618;2023-04-01T17:51:24;9.51;84.22